Clayton, WI (54004)

1:22 AM CST on November 28, 2014 (GMT -0600)
Cumberland Municipal | Change Station
CLOSE
Current Station
Airport
Location: Cumberland,
Elevation: 1240 ft
Nearby Weather Stations
Active Advisory: Winter Weather Advisory

Elev 1240 ft 45.51 °N, 91.98 °W | Updated 7 minutes ago

Snow
Snow
9 °F
Feels Like -4 °F
N
8
Wind Variable Wind from South

Today
High -- | Low -- °F
--% Chance of Precip.
Yesterday
High -- | Low -- °F
Precip. -- in
7:24 AM 4:28 PM
Waxing Crescent, 37% visible
Pressure 30.22 in
Visibility 2.5 miles
Clouds Scattered Clouds 1400 ft
Mostly Cloudy 2800 ft
Overcast 4200 ft
Windchill -4 °F
Dew Point 1 °F
Humidity 73%
Rainfall 0.00 in
Snow Depth Not available.
UV 0 out of 12
Pollen .10 out of 12
Air Quality Not available.
Flu Activity Not available.
METAR KUBE 280715Z AUTO 18007KT 2 1/2SM -SN SCT014 BKN028 OVC042 M13/M17 A3022 RMK AO2

More Conditions Fewer Conditions

Pressure 30.22 in
Visibility 2.5 miles
Clouds Scattered Clouds 1400 ft
Mostly Cloudy 2800 ft
Overcast 4200 ft
Windchill -4 °F
Dew Point 1 °F
Humidity 73%
Rainfall 0.00 in
Snow Depth Not available.
UV 0 out of 12
Pollen .10 out of 12
Air Quality Not available.
Flu Activity Not available.
METAR KUBE 280715Z AUTO 18007KT 2 1/2SM -SN SCT014 BKN028 OVC042 M13/M17 A3022 RMK AO2

More Conditions Fewer Conditions

10-Day Weather Forecast

Almanac

Astronomy

Nov. 28, 2014 Rise Set
Actual Time
Civil Twilight
Nautical Twilight
Astronomical Twilight
Moon
Length of Visible Light
Length of Day
Tomorrow will be .
, % of the Moon is Illuminated

Today's Extremes

State Highs State Lows

Community

WunderPhotos

Upload Photos

1,774,190 photos uploaded!

WunderBlogs® & News

Nearby

Air Quality

  Air Quality AQ Index Pollutant
Not available.

Snow Depth

Station Depth Elevation

Earthquake Activity

City Distance Mag. Time & Date
Minimum magnitude displayed is 2.5.

Coastal Water Temperatures

Place Temperature

Nearby Weather Stations